createdAt,value
2022-12-18T00:00:33.296Z,13.31
2022-12-18T00:02:59.884Z,13.28
2022-12-18T00:05:26.077Z,13.24
2022-12-18T00:07:52.407Z,13.22
2022-12-18T00:10:18.779Z,13.19
2022-12-18T00:12:45.162Z,13.17
2022-12-18T00:15:11.516Z,13.14
2022-12-18T00:17:38.062Z,13.10
2022-12-18T00:20:04.381Z,13.09
2022-12-18T00:22:30.771Z,13.06
2022-12-18T00:24:57.082Z,13.03
2022-12-18T00:27:23.426Z,13.01
2022-12-18T00:29:49.782Z,12.99
2022-12-18T00:32:16.161Z,12.95
2022-12-18T00:34:42.488Z,12.93
2022-12-18T00:37:08.868Z,12.92
2022-12-18T00:39:35.186Z,12.89
2022-12-18T00:42:01.533Z,12.87
2022-12-18T00:44:27.924Z,12.84
2022-12-18T00:46:54.292Z,12.82
2022-12-18T00:49:20.644Z,12.80
2022-12-18T00:51:47.045Z,12.77
2022-12-18T00:54:13.408Z,12.74
2022-12-18T00:56:48.326Z,12.73
2022-12-18T00:59:06.063Z,12.71
2022-12-18T01:01:32.577Z,12.67
2022-12-18T01:03:58.841Z,12.66
2022-12-18T01:06:25.185Z,12.63
2022-12-18T01:08:51.505Z,12.60
2022-12-18T01:11:17.875Z,12.59
2022-12-18T01:13:44.231Z,12.56
2022-12-18T01:16:10.713Z,12.54
2022-12-18T01:18:36.923Z,12.52
2022-12-18T01:21:03.302Z,12.48
2022-12-18T01:23:29.729Z,12.47
2022-12-18T01:25:56.141Z,12.46
2022-12-18T01:28:22.443Z,12.43
2022-12-18T01:30:48.822Z,12.40
2022-12-18T01:33:15.146Z,12.35
2022-12-18T01:35:41.493Z,12.33
2022-12-18T01:38:07.860Z,12.30
2022-12-18T01:40:34.218Z,12.27
2022-12-18T01:43:00.600Z,12.23
2022-12-18T01:45:26.969Z,12.21
2022-12-18T01:47:53.333Z,12.18
2022-12-18T01:50:19.931Z,12.16
2022-12-18T01:52:46.193Z,12.12
2022-12-18T01:55:12.507Z,12.09
2022-12-18T01:57:38.920Z,12.05
2022-12-18T02:00:05.227Z,12.01
2022-12-18T02:02:31.691Z,11.97
2022-12-18T02:04:57.956Z,11.95
2022-12-18T02:07:24.286Z,11.92
2022-12-18T02:09:50.617Z,11.88
2022-12-18T02:12:17.021Z,11.87
2022-12-18T02:14:43.414Z,11.82
2022-12-18T02:17:09.747Z,11.82
2022-12-18T02:19:36.171Z,11.80
2022-12-18T02:22:02.462Z,11.77
2022-12-18T02:24:28.779Z,11.75
2022-12-18T02:26:55.167Z,11.73
2022-12-18T02:29:21.460Z,11.71
2022-12-18T02:31:47.845Z,11.69
2022-12-18T02:34:14.233Z,11.67
2022-12-18T02:36:40.534Z,11.67
2022-12-18T02:39:06.887Z,11.65
2022-12-18T02:41:33.268Z,11.62
2022-12-18T02:43:59.622Z,11.60
2022-12-18T02:46:26.128Z,11.57
2022-12-18T02:48:52.413Z,11.56
2022-12-18T02:51:18.771Z,11.54
2022-12-18T02:53:45.091Z,11.52
2022-12-18T02:56:11.434Z,11.46
2022-12-18T02:58:37.795Z,11.43
2022-12-18T03:01:04.149Z,11.43
2022-12-18T03:03:30.537Z,11.41
2022-12-18T03:05:56.880Z,11.39
2022-12-18T03:08:23.306Z,11.36
2022-12-18T03:10:49.620Z,11.34
2022-12-18T03:13:15.975Z,11.32
2022-12-18T03:15:42.356Z,11.30
2022-12-18T03:18:08.709Z,11.27
2022-12-18T03:20:35.079Z,11.25
2022-12-18T03:23:01.438Z,11.22
2022-12-18T03:25:27.769Z,11.21
2022-12-18T03:27:54.149Z,11.20
2022-12-18T03:30:20.500Z,11.17
2022-12-18T03:32:46.854Z,11.19
2022-12-18T03:35:13.209Z,11.17
2022-12-18T03:37:39.528Z,11.15
2022-12-18T03:40:05.870Z,11.14
2022-12-18T03:42:32.264Z,11.13
2022-12-18T03:44:58.602Z,11.11
2022-12-18T03:47:24.985Z,11.09
2022-12-18T03:49:51.331Z,11.07
2022-12-18T03:52:17.710Z,11.06
2022-12-18T03:54:44.056Z,11.04
2022-12-18T03:57:10.464Z,11.02
2022-12-18T03:59:36.786Z,11.01
2022-12-18T04:02:03.281Z,11.00
2022-12-18T04:04:29.486Z,10.99
2022-12-18T04:06:55.879Z,10.98
2022-12-18T04:09:22.391Z,10.97
2022-12-18T04:11:48.779Z,10.97
2022-12-18T04:14:17.874Z,10.96
2022-12-18T04:16:41.463Z,10.95
2022-12-18T04:19:07.840Z,10.94
2022-12-18T04:21:34.196Z,10.92
2022-12-18T04:24:00.576Z,10.93
2022-12-18T04:26:26.931Z,10.93
2022-12-18T04:28:53.319Z,10.93
2022-12-18T04:31:19.690Z,10.93
2022-12-18T04:33:46.046Z,10.93
2022-12-18T04:36:12.440Z,10.93
2022-12-18T04:38:38.823Z,10.93
2022-12-18T04:41:05.173Z,10.91
2022-12-18T04:43:31.563Z,10.90
2022-12-18T04:45:57.944Z,10.90
2022-12-18T04:48:24.257Z,10.88
2022-12-18T04:50:50.577Z,10.88
2022-12-18T04:53:16.959Z,10.87
2022-12-18T04:55:43.272Z,10.86
2022-12-18T04:58:09.618Z,10.85
2022-12-18T05:00:35.967Z,10.84
2022-12-18T05:03:02.419Z,10.83
2022-12-18T05:05:28.727Z,10.81
2022-12-18T05:07:55.104Z,10.79
2022-12-18T05:10:21.490Z,10.77
2022-12-18T05:12:47.839Z,10.77
2022-12-18T05:15:14.197Z,10.75
2022-12-18T05:17:40.568Z,10.72
2022-12-18T05:20:06.930Z,10.71
2022-12-18T05:22:33.401Z,10.70
2022-12-18T05:24:59.711Z,10.70
2022-12-18T05:27:26.045Z,10.67
2022-12-18T05:29:52.375Z,10.67
2022-12-18T05:32:18.826Z,10.65
2022-12-18T05:34:45.122Z,10.65
2022-12-18T05:37:11.488Z,10.64
2022-12-18T05:39:37.867Z,10.64
2022-12-18T05:42:04.248Z,10.63
2022-12-18T05:44:30.567Z,10.62
2022-12-18T05:46:56.964Z,10.61
2022-12-18T05:49:23.235Z,10.61
2022-12-18T05:51:49.615Z,10.61
2022-12-18T05:54:15.972Z,10.61
2022-12-18T05:56:48.358Z,10.59
2022-12-18T05:59:08.702Z,10.59
2022-12-18T06:01:35.227Z,10.57
2022-12-18T06:04:01.568Z,10.55
2022-12-18T06:06:27.822Z,10.56
2022-12-18T06:08:54.213Z,10.54
2022-12-18T06:11:20.614Z,10.54
2022-12-18T06:13:46.966Z,10.54
2022-12-18T06:16:13.336Z,10.54
2022-12-18T06:18:39.676Z,10.52
2022-12-18T06:21:06.087Z,10.53
2022-12-18T06:23:32.402Z,10.53
2022-12-18T06:25:58.789Z,10.53
2022-12-18T06:28:25.140Z,10.52
2022-12-18T06:30:51.530Z,10.50
2022-12-18T06:33:17.882Z,10.52
2022-12-18T06:35:44.255Z,10.52
2022-12-18T06:38:10.567Z,10.52
2022-12-18T06:40:36.945Z,10.50
2022-12-18T06:43:03.337Z,10.52
2022-12-18T06:45:29.821Z,10.52
2022-12-18T06:47:56.116Z,10.51
2022-12-18T06:50:22.531Z,10.51
2022-12-18T06:52:48.911Z,10.51
2022-12-18T06:55:15.902Z,10.52
2022-12-18T06:57:42.255Z,10.52
2022-12-18T07:00:08.591Z,10.53
2022-12-18T07:02:35.031Z,10.54
2022-12-18T07:05:04.723Z,10.55
2022-12-18T07:07:27.655Z,10.56
2022-12-18T07:09:54.144Z,10.59
2022-12-18T07:12:20.423Z,10.61
2022-12-18T07:14:46.998Z,10.63
2022-12-18T07:17:13.388Z,10.64
